createdAt,value
2018-05-13T00:02:28.154Z,17.90
2018-05-13T00:04:57.265Z,17.90
2018-05-13T00:07:24.686Z,17.90
2018-05-13T00:09:53.065Z,17.90
2018-05-13T00:12:20.486Z,17.90
2018-05-13T00:14:47.913Z,17.90
2018-05-13T00:17:15.393Z,17.90
2018-05-13T00:19:43.624Z,17.80
2018-05-13T00:22:11.036Z,17.80
2018-05-13T00:24:38.480Z,17.80
2018-05-13T00:27:05.905Z,17.80
2018-05-13T00:29:34.092Z,17.80
2018-05-13T00:32:01.521Z,17.70
2018-05-13T00:34:29.045Z,17.70
2018-05-13T00:36:56.496Z,17.70
2018-05-13T00:39:23.920Z,17.70
2018-05-13T00:41:51.345Z,17.70
2018-05-13T00:44:18.833Z,17.70
2018-05-13T00:46:46.289Z,17.70
2018-05-13T00:49:13.741Z,17.60
2018-05-13T00:51:41.174Z,17.70
2018-05-13T00:54:20.314Z,17.60
2018-05-13T00:56:47.869Z,17.60
2018-05-13T00:59:15.325Z,17.50
2018-05-13T01:01:42.897Z,17.50
2018-05-13T01:04:10.301Z,17.50
2018-05-13T01:06:37.737Z,17.60
2018-05-13T01:09:05.150Z,17.50
2018-05-13T01:11:33.341Z,17.40
2018-05-13T01:14:01.565Z,17.40
2018-05-13T01:16:28.980Z,17.40
2018-05-13T01:18:56.414Z,17.40
2018-05-13T01:21:23.865Z,17.40
2018-05-13T01:23:51.307Z,17.30
2018-05-13T01:26:18.788Z,17.30
2018-05-13T01:28:46.365Z,17.30
2018-05-13T01:31:13.723Z,17.30
2018-05-13T01:33:41.148Z,17.30
2018-05-13T01:36:08.665Z,17.20
2018-05-13T01:38:36.093Z,17.20
2018-05-13T01:41:03.504Z,17.20
2018-05-13T01:43:30.920Z,17.10
2018-05-13T01:45:59.159Z,17.10
2018-05-13T01:48:26.628Z,17.00
2018-05-13T01:50:54.106Z,17.10
2018-05-13T01:53:21.533Z,17.00
2018-05-13T01:55:48.968Z,17.00
2018-05-13T01:58:16.404Z,16.90
2018-05-13T02:00:43.840Z,16.90
2018-05-13T02:03:12.028Z,16.80
2018-05-13T02:05:40.259Z,16.80
2018-05-13T02:08:07.683Z,16.80
2018-05-13T02:10:35.871Z,16.80
2018-05-13T02:13:04.105Z,16.80
2018-05-13T02:15:31.526Z,16.70
2018-05-13T02:17:59.745Z,16.80
2018-05-13T02:20:27.163Z,16.70
2018-05-13T02:22:54.592Z,16.70
2018-05-13T02:25:22.058Z,16.70
2018-05-13T02:27:49.513Z,16.60
2018-05-13T02:30:16.949Z,16.60
2018-05-13T02:32:45.216Z,16.50
2018-05-13T02:35:12.850Z,16.50
2018-05-13T02:37:41.015Z,16.50
2018-05-13T02:40:09.214Z,16.50
2018-05-13T02:42:36.664Z,16.50
2018-05-13T02:45:04.078Z,16.50
2018-05-13T02:47:31.637Z,16.50
2018-05-13T02:49:59.922Z,16.40
2018-05-13T02:52:27.389Z,16.40
2018-05-13T02:54:54.825Z,16.40
2018-05-13T02:57:23.028Z,16.30
2018-05-13T02:59:50.452Z,16.30
2018-05-13T03:02:17.899Z,16.20
2018-05-13T03:04:45.292Z,16.20
2018-05-13T03:07:12.750Z,16.20
2018-05-13T03:09:40.210Z,16.20
2018-05-13T03:12:07.663Z,16.10
2018-05-13T03:14:35.125Z,16.10
2018-05-13T03:17:02.574Z,16.00
2018-05-13T03:19:30.753Z,16.00
2018-05-13T03:21:59.897Z,16.00
2018-05-13T03:24:27.315Z,16.00
2018-05-13T03:26:54.737Z,16.00
2018-05-13T03:29:22.160Z,16.00
2018-05-13T03:31:50.369Z,16.10
2018-05-13T03:34:17.892Z,16.10
2018-05-13T03:36:46.845Z,16.00
2018-05-13T03:39:15.022Z,16.00
2018-05-13T03:41:42.491Z,16.00
2018-05-13T03:44:10.688Z,16.00
2018-05-13T03:46:38.110Z,15.90
2018-05-13T03:49:05.536Z,15.90
2018-05-13T03:51:32.961Z,16.00
2018-05-13T03:54:01.157Z,16.00
2018-05-13T03:56:30.291Z,16.00
2018-05-13T03:58:57.700Z,15.90
2018-05-13T04:01:25.128Z,15.90
2018-05-13T04:03:52.553Z,15.90
2018-05-13T04:06:20.740Z,16.00
2018-05-13T04:09:00.025Z,16.00
2018-05-13T04:11:39.407Z,16.00
2018-05-13T04:14:19.509Z,15.90
2018-05-13T04:16:46.952Z,15.90
2018-05-13T04:19:14.392Z,15.90
2018-05-13T04:21:41.819Z,15.80
2018-05-13T04:24:10.001Z,15.80
2018-05-13T04:26:38.218Z,15.80
2018-05-13T04:29:05.626Z,15.80
2018-05-13T04:31:33.052Z,15.80
2018-05-13T04:34:00.469Z,15.80
2018-05-13T04:36:27.892Z,15.80
2018-05-13T04:38:55.322Z,15.90
2018-05-13T04:41:22.740Z,15.90
2018-05-13T04:43:50.301Z,15.90
2018-05-13T04:46:17.748Z,16.00
2018-05-13T04:48:45.990Z,16.00
2018-05-13T04:51:13.432Z,16.00
2018-05-13T04:53:40.844Z,16.00
2018-05-13T04:56:08.289Z,16.00
2018-05-13T04:58:35.724Z,15.90
2018-05-13T05:01:03.172Z,15.90
2018-05-13T05:03:31.561Z,15.90
2018-05-13T05:06:00.701Z,15.80
2018-05-13T05:08:28.158Z,15.80
2018-05-13T05:10:55.626Z,15.90
2018-05-13T05:13:23.046Z,15.90
2018-05-13T05:15:50.580Z,15.90
2018-05-13T05:18:18.002Z,15.90
2018-05-13T05:20:46.231Z,16.00
2018-05-13T05:23:13.704Z,16.00
2018-05-13T05:25:41.132Z,16.10
2018-05-13T05:28:09.312Z,16.20
2018-05-13T05:30:37.502Z,16.30
2018-05-13T05:33:05.681Z,16.30
2018-05-13T05:35:33.872Z,16.40
2018-05-13T05:38:02.096Z,16.40
2018-05-13T05:40:29.557Z,16.40
2018-05-13T05:42:56.991Z,16.50
2018-05-13T05:45:24.436Z,16.50
2018-05-13T05:47:51.860Z,16.50
2018-05-13T05:50:19.289Z,16.60
2018-05-13T05:52:46.806Z,16.60
2018-05-13T05:55:14.245Z,16.70
2018-05-13T05:57:42.454Z,16.90
2018-05-13T06:00:09.865Z,16.90
2018-05-13T06:02:37.289Z,17.00
2018-05-13T06:05:04.774Z,17.00
2018-05-13T06:07:32.197Z,17.10
2018-05-13T06:09:59.695Z,17.20
2018-05-13T06:12:27.125Z,17.30
2018-05-13T06:14:54.548Z,17.30
2018-05-13T06:17:21.972Z,17.40
2018-05-13T06:19:50.913Z,17.50
2018-05-13T06:22:18.398Z,17.50
2018-05-13T06:24:45.877Z,17.50
2018-05-13T06:27:13.310Z,17.50
2018-05-13T06:29:40.773Z,17.60
2018-05-13T06:32:08.197Z,17.60
2018-05-13T06:34:35.721Z,17.70
2018-05-13T06:37:03.196Z,17.70
2018-05-13T06:39:30.630Z,17.80
2018-05-13T06:41:58.049Z,17.90
2018-05-13T06:44:25.471Z,18.00
2018-05-13T06:46:53.653Z,18.00
2018-05-13T06:49:21.840Z,18.10
2018-05-13T06:51:49.332Z,18.00
2018-05-13T06:54:16.771Z,18.10
2018-05-13T06:56:44.230Z,18.20
2018-05-13T06:59:11.656Z,18.30
2018-05-13T07:01:39.109Z,18.40
2018-05-13T07:04:06.533Z,18.50
2018-05-13T07:06:34.053Z,18.50
2018-05-13T07:09:03.049Z,18.50
2018-05-13T07:11:30.532Z,18.50
2018-05-13T07:13:57.991Z,18.70
2018-05-13T07:16:25.471Z,18.70
2018-05-13T07:18:52.846Z,18.90
2018-05-13T07:21:20.257Z,19.00
2018-05-13T07:23:47.729Z,19.20
2018-05-13T07:26:15.256Z,19.30
2018-05-13T07:28:42.698Z,19.30
2018-05-13T07:31:10.129Z,19.40
2018-05-13T07:33:37.637Z,19.30
2018-05-13T07:36:05.057Z,19.40
2018-05-13T07:38:33.475Z,19.50
2018-05-13T07:41:02.588Z,19.60
2018-05-13T07:43:30.884Z,19.70
2018-05-13T07:45:58.984Z,19.70
2018-05-13T07:48:26.450Z,19.70
2018-05-13T07:50:53.929Z,19.80
2018-05-13T07:53:21.389Z,19.70
2018-05-13T07:55:48.834Z,19.80
2018-05-13T07:58:17.029Z,20.00
2018-05-13T08:00:45.225Z,20.10
2018-05-13T08:03:12.676Z,20.10
2018-05-13T08:05:40.859Z,20.30
2018-05-13T08:08:09.061Z,20.40
2018-05-13T08:10:37.236Z,20.50
2018-05-13T08:13:05.456Z,20.60
2018-05-13T08:15:33.953Z,20.70
2018-05-13T08:18:01.377Z,20.70
2018-05-13T08:20:29.713Z,20.80
2018-05-13T08:22:57.068Z,20.70
2018-05-13T08:25:24.499Z,20.90
2018-05-13T08:27:52.701Z,21.00
2018-05-13T08:30:20.921Z,21.20
2018-05-13T08:32:48.493Z,21.20
2018-05-13T08:35:15.938Z,21.20
2018-05-13T08:37:43.381Z,21.30
2018-05-13T08:40:11.601Z,21.40
2018-05-13T08:42:39.012Z,21.40
2018-05-13T08:45:06.432Z,21.30
2018-05-13T08:47:34.002Z,21.40
2018-05-13T08:50:02.177Z,21.30
2018-05-13T08:52:29.641Z,21.30
2018-05-13T08:54:57.820Z,21.40
2018-05-13T08:57:26.021Z,21.40
2018-05-13T08:59:54.428Z,21.40
2018-05-13T09:02:21.877Z,21.30
2018-05-13T09:04:50.190Z,21.50
2018-05-13T09:07:18.555Z,21.60
2018-05-13T09:09:47.036Z,21.70
2018-05-13T09:12:14.520Z,21.70
2018-05-13T09:14:42.043Z,21.90
2018-05-13T09:17:09.475Z,22.00
2018-05-13T09:19:36.889Z,22.10
2018-05-13T09:22:04.431Z,22.10
2018-05-13T09:24:31.917Z,22.20
2018-05-13T09:26:59.381Z,22.20
2018-05-13T09:29:26.828Z,22.30
2018-05-13T09:31:54.254Z,22.30
2018-05-13T09:34:22.580Z,22.50
2018-05-13T09:36:49.995Z,22.50
2018-05-13T09:39:17.417Z,22.60
2018-05-13T09:41:44.910Z,22.70
2018-05-13T09:44:12.313Z,22.80
2018-05-13T09:46:39.729Z,22.90
2018-05-13T09:49:07.180Z,23.00
2018-05-13T09:51:34.608Z,23.00
2018-05-13T09:54:02.034Z,23.20
2018-05-13T09:56:29.453Z,23.40
2018-05-13T09:58:57.640Z,23.60
2018-05-13T10:01:25.912Z,23.70
2018-05-13T10:03:53.466Z,23.60
2018-05-13T10:06:20.888Z,23.80
2018-05-13T10:08:48.325Z,23.90
2018-05-13T10:11:15.750Z,23.90
2018-05-13T10:13:43.187Z,23.90
2018-05-13T10:16:11.365Z,24.10
2018-05-13T10:18:39.577Z,24.10
2018-05-13T10:21:07.034Z,24.10
2018-05-13T10:23:35.612Z,24.10
2018-05-13T10:26:04.761Z,24.10
2018-05-13T10:28:32.223Z,24.10
2018-05-13T10:30:59.680Z,24.20
2018-05-13T10:33:27.108Z,24.30
2018-05-13T10:35:54.645Z,24.30
2018-05-13T10:38:22.063Z,24.30
2018-05-13T10:40:49.650Z,24.40
2018-05-13T10:43:17.888Z,24.40
2018-05-13T10:45:45.362Z,24.30
2018-05-13T10:48:12.813Z,24.40
2018-05-13T10:50:40.260Z,24.50
2018-05-13T10:53:07.728Z,24.50
2018-05-13T10:55:36.001Z,24.80
2018-05-13T10:58:05.111Z,24.90
2018-05-13T11:00:33.323Z,24.90
2018-05-13T11:03:00.757Z,24.90
2018-05-13T11:05:28.957Z,25.10
2018-05-13T11:07:56.388Z,25.00
2018-05-13T11:10:23.876Z,25.10
2018-05-13T11:12:51.663Z,25.20
2018-05-13T11:15:19.861Z,25.30
2018-05-13T11:17:47.310Z,25.30
2018-05-13T11:20:15.512Z,25.60
2018-05-13T11:22:43.739Z,25.50
2018-05-13T11:25:11.179Z,25.40
2018-05-13T11:27:39.348Z,25.80
2018-05-13T11:30:07.545Z,26.00
2018-05-13T11:32:36.537Z,25.90
2018-05-13T11:35:03.973Z,25.90
2018-05-13T11:37:31.393Z,26.00
2018-05-13T11:39:58.901Z,26.10
2018-05-13T11:42:26.337Z,26.30
2018-05-13T11:44:53.768Z,26.30
2018-05-13T11:47:21.272Z,26.40
2018-05-13T11:49:49.466Z,26.90
2018-05-13T11:52:16.892Z,26.80
2018-05-13T11:54:45.085Z,27.10
2018-05-13T11:57:13.316Z,27.10
2018-05-13T11:59:40.738Z,27.10
2018-05-13T12:02:08.996Z,26.90
2018-05-13T12:04:37.144Z,27.20
2018-05-13T12:07:04.604Z,27.20
2018-05-13T12:09:32.078Z,27.30
2018-05-13T12:11:59.545Z,27.60
2018-05-13T12:14:26.971Z,27.90
2018-05-13T12:16:54.381Z,28.00
2018-05-13T12:19:21.812Z,28.30
2018-05-13T12:21:49.308Z,28.30
2018-05-13T12:24:17.506Z,28.20
2018-05-13T12:26:44.946Z,28.20
2018-05-13T12:29:12.381Z,28.70
2018-05-13T12:31:39.800Z,28.90
2018-05-13T12:34:07.220Z,29.40
2018-05-13T12:36:34.644Z,29.60
2018-05-13T12:39:02.066Z,29.80
2018-05-13T12:41:29.499Z,29.60
2018-05-13T12:43:56.927Z,29.70
2018-05-13T12:46:24.356Z,29.70
2018-05-13T12:48:51.769Z,30.10
2018-05-13T12:51:19.948Z,31.10
2018-05-13T12:53:48.143Z,30.70
2018-05-13T12:56:15.716Z,30.60
2018-05-13T12:58:43.076Z,30.60
2018-05-13T13:01:11.253Z,30.60
2018-05-13T13:03:39.490Z,30.10
2018-05-13T13:06:07.928Z,30.40
2018-05-13T13:08:35.339Z,30.40
2018-05-13T13:11:02.802Z,30.50
2018-05-13T13:13:30.261Z,30.70
2018-05-13T13:15:57.741Z,31.10
2018-05-13T13:18:25.213Z,31.20
2018-05-13T13:20:52.637Z,31.20
2018-05-13T13:23:20.090Z,30.80
2018-05-13T13:25:47.549Z,30.80
2018-05-13T13:28:15.002Z,31.30
2018-05-13T13:30:42.465Z,31.80
2018-05-13T13:33:09.882Z,32.70
2018-05-13T13:35:38.464Z,32.70
2018-05-13T13:38:07.486Z,32.20
2018-05-13T13:40:35.704Z,32.20
2018-05-13T13:43:03.137Z,32.20
2018-05-13T13:45:31.324Z,32.20
2018-05-13T13:47:59.512Z,32.40
2018-05-13T13:50:27.745Z,33.10
2018-05-13T13:52:55.210Z,33.10
2018-05-13T13:55:22.623Z,33.00
2018-05-13T13:57:50.053Z,32.50
2018-05-13T14:00:17.473Z,32.50
2018-05-13T14:02:45.697Z,32.20
2018-05-13T14:05:13.274Z,32.10
2018-05-13T14:07:40.936Z,32.00
2018-05-13T14:10:08.425Z,32.80
2018-05-13T14:12:36.005Z,33.30
2018-05-13T14:15:03.466Z,32.80
2018-05-13T14:17:30.885Z,32.20
2018-05-13T14:19:58.385Z,31.70
2018-05-13T14:22:25.753Z,31.30
2018-05-13T14:24:53.172Z,31.20
2018-05-13T14:27:20.792Z,31.30
2018-05-13T14:29:48.312Z,32.20
2018-05-13T14:32:15.754Z,32.90
2018-05-13T14:34:43.210Z,32.90
2018-05-13T14:37:10.668Z,32.60
2018-05-13T14:39:39.446Z,31.60
2018-05-13T14:42:08.548Z,31.10
2018-05-13T14:44:36.768Z,31.20
2018-05-13T14:47:04.229Z,31.20
2018-05-13T14:49:31.724Z,31.50
2018-05-13T14:51:59.179Z,31.80
2018-05-13T14:54:26.585Z,32.10
2018-05-13T14:56:54.006Z,32.40
2018-05-13T14:59:21.473Z,32.20
2018-05-13T15:01:48.920Z,32.30
2018-05-13T15:04:17.105Z,31.20
2018-05-13T15:06:45.294Z,31.50
2018-05-13T15:09:13.502Z,31.70
2018-05-13T15:11:40.911Z,31.70
2018-05-13T15:14:09.257Z,31.80
2018-05-13T15:16:36.749Z,30.60
2018-05-13T15:19:04.183Z,29.60
2018-05-13T15:21:32.424Z,28.40
2018-05-13T15:23:59.838Z,28.40
2018-05-13T15:26:27.259Z,28.50
2018-05-13T15:28:54.689Z,28.70
2018-05-13T15:31:22.170Z,28.50
2018-05-13T15:33:49.574Z,28.10
2018-05-13T15:36:17.454Z,27.70
2018-05-13T15:38:45.398Z,27.50
2018-05-13T15:41:12.942Z,28.00
2018-05-13T15:43:41.108Z,29.40
2018-05-13T15:46:10.242Z,29.90
2018-05-13T15:48:37.760Z,29.80
2018-05-13T15:51:05.164Z,30.00
2018-05-13T15:53:33.434Z,30.60
2018-05-13T15:56:00.869Z,30.60
2018-05-13T15:58:28.272Z,30.60
2018-05-13T16:00:55.859Z,30.20
2018-05-13T16:03:23.381Z,29.80
2018-05-13T16:05:51.044Z,29.70
2018-05-13T16:08:18.492Z,29.40
2018-05-13T16:10:46.724Z,27.90
2018-05-13T16:13:14.147Z,27.90
2018-05-13T16:15:41.569Z,27.50
2018-05-13T16:18:09.140Z,27.40
2018-05-13T16:20:37.353Z,28.00
2018-05-13T16:23:05.546Z,28.20
2018-05-13T16:25:33.734Z,27.90
2018-05-13T16:28:01.180Z,27.90
2018-05-13T16:30:28.681Z,27.80
2018-05-13T16:32:56.158Z,27.70
2018-05-13T16:35:23.595Z,27.70
2018-05-13T16:37:51.796Z,27.70
2018-05-13T16:40:19.997Z,27.90
2018-05-13T16:42:47.535Z,27.90
2018-05-13T16:45:15.139Z,27.90
2018-05-13T16:47:42.552Z,27.90
2018-05-13T16:50:11.490Z,27.50
2018-05-13T16:52:40.584Z,27.40
2018-05-13T16:55:08.810Z,27.20
2018-05-13T16:57:36.274Z,27.20
2018-05-13T17:00:03.696Z,27.10
2018-05-13T17:02:31.211Z,27.00
2018-05-13T17:04:58.545Z,26.90
2018-05-13T17:07:26.768Z,26.70
2018-05-13T17:09:54.246Z,26.70
2018-05-13T17:12:21.729Z,26.60
2018-05-13T17:14:49.165Z,26.60
2018-05-13T17:17:16.740Z,26.50
2018-05-13T17:19:44.844Z,26.30
2018-05-13T17:22:12.279Z,26.30
2018-05-13T17:24:39.780Z,26.20
2018-05-13T17:27:07.207Z,26.20
2018-05-13T17:29:35.416Z,26.00
2018-05-13T17:32:02.866Z,25.90
2018-05-13T17:34:31.075Z,25.80
2018-05-13T17:36:58.474Z,25.80
2018-05-13T17:39:25.952Z,25.70
2018-05-13T17:41:53.332Z,25.70
2018-05-13T17:44:20.769Z,25.70
2018-05-13T17:46:48.201Z,25.70
2018-05-13T17:49:16.507Z,25.60
2018-05-13T17:51:44.709Z,25.50
2018-05-13T17:54:12.139Z,25.50
2018-05-13T17:56:40.321Z,25.50
2018-05-13T17:59:08.504Z,25.40
2018-05-13T18:01:36.709Z,25.40
2018-05-13T18:04:04.117Z,25.40
2018-05-13T18:06:31.539Z,25.40
2018-05-13T18:08:58.976Z,25.30
2018-05-13T18:11:26.513Z,25.30
2018-05-13T18:13:53.942Z,25.30
2018-05-13T18:16:22.129Z,25.20
2018-05-13T18:18:50.340Z,25.10
2018-05-13T18:21:17.819Z,25.10
2018-05-13T18:23:45.297Z,25.10
2018-05-13T18:26:12.826Z,25.00
2018-05-13T18:28:40.997Z,25.00
2018-05-13T18:31:09.265Z,25.00
2018-05-13T18:33:36.648Z,25.00
2018-05-13T18:36:04.068Z,24.90
2018-05-13T18:38:31.493Z,24.90
2018-05-13T18:40:59.694Z,24.80
2018-05-13T18:43:27.897Z,24.80
2018-05-13T18:45:55.322Z,24.80
2018-05-13T18:48:22.738Z,24.80
2018-05-13T18:50:50.248Z,24.80
2018-05-13T18:53:17.760Z,24.90
2018-05-13T18:55:45.280Z,24.90
2018-05-13T18:58:13.620Z,24.40
2018-05-13T19:00:41.038Z,24.40
2018-05-13T19:03:08.470Z,24.10
2018-05-13T19:05:35.886Z,23.80
2018-05-13T19:08:03.320Z,23.60
2018-05-13T19:10:30.724Z,23.40
2018-05-13T19:12:58.908Z,23.20
2018-05-13T19:15:26.353Z,23.20
2018-05-13T19:17:53.811Z,23.10
2018-05-13T19:20:21.307Z,23.00
2018-05-13T19:22:48.735Z,22.80
2018-05-13T19:25:16.181Z,22.60
2018-05-13T19:27:43.627Z,22.40
2018-05-13T19:30:11.052Z,22.30
2018-05-13T19:32:38.503Z,22.10
2018-05-13T19:35:05.980Z,22.10
2018-05-13T19:37:33.463Z,21.90
2018-05-13T19:40:00.915Z,21.80
2018-05-13T19:42:28.393Z,21.70
2018-05-13T19:44:55.830Z,21.60
2018-05-13T19:47:24.012Z,21.50
2018-05-13T19:49:52.208Z,21.40
2018-05-13T19:52:19.667Z,21.40
2018-05-13T19:54:47.982Z,21.30
2018-05-13T19:57:16.207Z,21.30
2018-05-13T19:59:44.608Z,21.20
2018-05-13T20:02:12.032Z,21.20
2018-05-13T20:04:39.478Z,21.20
2018-05-13T20:07:07.677Z,21.10
2018-05-13T20:09:35.191Z,21.10
2018-05-13T20:12:03.304Z,20.90
2018-05-13T20:14:31.524Z,20.90
2018-05-13T20:16:58.936Z,20.80
2018-05-13T20:19:26.365Z,20.80
2018-05-13T20:21:53.784Z,20.70
2018-05-13T20:24:21.302Z,20.60
2018-05-13T20:26:48.716Z,20.60
2018-05-13T20:29:16.142Z,20.50
2018-05-13T20:31:44.417Z,20.50
2018-05-13T20:34:11.835Z,20.50
2018-05-13T20:36:39.530Z,20.40
2018-05-13T20:39:07.763Z,20.30
2018-05-13T20:41:35.218Z,20.30
2018-05-13T20:44:02.693Z,20.30
2018-05-13T20:46:30.157Z,20.30
2018-05-13T20:48:57.564Z,20.30
2018-05-13T20:51:25.017Z,20.20
2018-05-13T20:53:52.436Z,20.20
2018-05-13T20:56:19.929Z,20.10
2018-05-13T20:58:47.419Z,20.10
2018-05-13T21:01:15.002Z,20.00
2018-05-13T21:03:42.443Z,20.00
2018-05-13T21:06:09.875Z,20.00
2018-05-13T21:08:37.374Z,20.00
2018-05-13T21:11:04.808Z,20.00
2018-05-13T21:13:32.314Z,20.00
2018-05-13T21:15:59.811Z,20.00
2018-05-13T21:18:27.218Z,19.90
2018-05-13T21:20:54.643Z,19.90
2018-05-13T21:23:22.193Z,19.80
2018-05-13T21:25:49.557Z,19.80
2018-05-13T21:28:17.045Z,19.70
2018-05-13T21:30:45.430Z,19.70
2018-05-13T21:33:12.854Z,19.60
2018-05-13T21:35:41.068Z,19.50
2018-05-13T21:38:08.572Z,19.50
2018-05-13T21:40:35.990Z,19.50
2018-05-13T21:43:04.173Z,19.60
2018-05-13T21:45:32.355Z,19.50
2018-05-13T21:48:00.549Z,19.40
2018-05-13T21:50:28.745Z,19.40
2018-05-13T21:52:56.229Z,19.30
2018-05-13T21:55:23.681Z,19.20
2018-05-13T21:57:51.101Z,19.20
2018-05-13T22:00:18.545Z,19.20
2018-05-13T22:02:45.976Z,19.20
2018-05-13T22:05:14.196Z,19.20
2018-05-13T22:07:41.632Z,19.10
2018-05-13T22:10:09.817Z,19.10
2018-05-13T22:12:37.999Z,19.10
2018-05-13T22:15:06.184Z,19.00
2018-05-13T22:17:34.498Z,18.90
2018-05-13T22:20:02.555Z,18.90
2018-05-13T22:22:30.777Z,18.80
2018-05-13T22:24:58.205Z,18.80
2018-05-13T22:27:25.638Z,18.80
2018-05-13T22:29:53.072Z,18.70
2018-05-13T22:32:20.530Z,18.70
2018-05-13T22:34:48.114Z,18.70
2018-05-13T22:37:16.470Z,18.70
2018-05-13T22:39:44.716Z,18.60
2018-05-13T22:42:12.147Z,18.60
2018-05-13T22:44:39.575Z,18.60
2018-05-13T22:47:07.020Z,18.60
2018-05-13T22:49:34.450Z,18.50
2018-05-13T22:52:02.752Z,18.40
2018-05-13T22:54:30.921Z,18.40
2018-05-13T22:56:59.113Z,18.40
2018-05-13T22:59:26.549Z,18.40
2018-05-13T23:01:54.087Z,18.40
2018-05-13T23:04:21.583Z,18.30
2018-05-13T23:06:49.703Z,18.30
2018-05-13T23:09:18.052Z,18.20
2018-05-13T23:11:46.361Z,18.10
2018-05-13T23:14:14.555Z,18.10
2018-05-13T23:16:42.750Z,18.10
2018-05-13T23:19:10.935Z,18.10
2018-05-13T23:21:39.149Z,18.10
2018-05-13T23:24:06.605Z,18.10
2018-05-13T23:26:34.033Z,18.00
2018-05-13T23:29:01.460Z,18.00
2018-05-13T23:31:28.936Z,18.00
2018-05-13T23:33:56.696Z,17.70
2018-05-13T23:36:24.120Z,17.60
2018-05-13T23:38:51.545Z,17.50
2018-05-13T23:41:19.053Z,17.50
2018-05-13T23:43:48.101Z,17.60
2018-05-13T23:46:15.609Z,17.60
2018-05-13T23:48:43.144Z,17.60
2018-05-13T23:51:10.560Z,17.70
2018-05-13T23:53:37.989Z,17.60
2018-05-13T23:56:05.456Z,17.60
2018-05-13T23:58:32.895Z,17.60
